Terminal Aerodrome Forecast
Issued by NWS

Home | Current Version | Previous Version | Graphics & Text | Print | Product List | Glossary On
Versions: 1 2 3 4 5 6 7 8 9 10 11 12 13 14 15 16 17 18 19 20 21 22 23 24 25 26
517
FTUS43 KLOT 200318 AAA
TAFDPA
TAF AMD
KDPA 200318Z 2003/2024 32005KT P6SM -RA VCTS SCT030 BKN060CB BKN080
     FM200400 21009KT P6SM -RA SCT030 BKN060 BKN080
      TEMPO 2005/2007 27018G30KT
     FM200800 24008KT P6SM SCT040 BKN080
      TEMPO 2010/2012 3SM TSRA SCT020 OVC060CB
     FM201400 23010KT P6SM SCT040 BKN250
     FM201900 30010KT P6SM SCT040 PROB30 2019/2023 4SM TSRA
      BKN040CB=

USA.gov is the U.S. government's official web portal to all federal, state and local government web resources and services.